sensor_id;sensor_type;location;lat;lon;timestamp;P1;durP1;ratioP1;P2;durP2;ratioP2
15126;SDS011;7664;52.008;4.748;2022-11-23T00:02:16;16.00;;;8.35;;
15126;SDS011;7664;52.008;4.748;2022-11-23T00:04:44;15.60;;;8.25;;
15126;SDS011;7664;52.008;4.748;2022-11-23T00:07:14;14.10;;;8.77;;
15126;SDS011;7664;52.008;4.748;2022-11-23T00:09:43;12.75;;;7.63;;
15126;SDS011;7664;52.008;4.748;2022-11-23T00:12:11;13.48;;;7.50;;
15126;SDS011;7664;52.008;4.748;2022-11-23T00:14:40;11.75;;;8.10;;
15126;SDS011;7664;52.008;4.748;2022-11-23T00:17:08;20.52;;;8.25;;
15126;SDS011;7664;52.008;4.748;2022-11-23T00:19:54;13.85;;;7.68;;
15126;SDS011;7664;52.008;4.748;2022-11-23T00:22:23;17.08;;;7.95;;
15126;SDS011;7664;52.008;4.748;2022-11-23T00:24:51;12.30;;;7.55;;
15126;SDS011;7664;52.008;4.748;2022-11-23T00:27:20;10.57;;;7.88;;
15126;SDS011;7664;52.008;4.748;2022-11-23T00:29:48;13.15;;;7.45;;
15126;SDS011;7664;52.008;4.748;2022-11-23T00:47:05;15.70;;;8.13;;
15126;SDS011;7664;52.008;4.748;2022-11-23T00:49:33;14.27;;;7.70;;
15126;SDS011;7664;52.008;4.748;2022-11-23T00:52:01;18.20;;;7.50;;
15126;SDS011;7664;52.008;4.748;2022-11-23T00:54:30;10.90;;;6.38;;
15126;SDS011;7664;52.008;4.748;2022-11-23T00:56:58;14.05;;;6.60;;
15126;SDS011;7664;52.008;4.748;2022-11-23T00:59:27;12.25;;;6.63;;
15126;SDS011;7664;52.008;4.748;2022-11-23T01:01:56;12.18;;;6.70;;
15126;SDS011;7664;52.008;4.748;2022-11-23T01:04:25;16.10;;;6.78;;
15126;SDS011;7664;52.008;4.748;2022-11-23T01:06:56;18.90;;;7.53;;
15126;SDS011;7664;52.008;4.748;2022-11-23T01:09:25;13.77;;;6.57;;
15126;SDS011;7664;52.008;4.748;2022-11-23T01:11:54;13.45;;;6.93;;
15126;SDS011;7664;52.008;4.748;2022-11-23T01:14:22;14.23;;;7.80;;
15126;SDS011;7664;52.008;4.748;2022-11-23T01:16:51;8.85;;;6.28;;
15126;SDS011;7664;52.008;4.748;2022-11-23T01:19:19;15.23;;;7.57;;
15126;SDS011;7664;52.008;4.748;2022-11-23T01:21:49;13.48;;;6.57;;
15126;SDS011;7664;52.008;4.748;2022-11-23T01:24:19;14.50;;;7.28;;
15126;SDS011;7664;52.008;4.748;2022-11-23T01:26:49;14.57;;;7.72;;
15126;SDS011;7664;52.008;4.748;2022-11-23T01:29:18;16.95;;;7.03;;
15126;SDS011;7664;52.008;4.748;2022-11-23T01:31:47;18.05;;;7.28;;
15126;SDS011;7664;52.008;4.748;2022-11-23T01:34:15;16.38;;;6.65;;
15126;SDS011;7664;52.008;4.748;2022-11-23T01:36:44;14.18;;;7.72;;
15126;SDS011;7664;52.008;4.748;2022-11-23T01:39:14;12.57;;;6.25;;
15126;SDS011;7664;52.008;4.748;2022-11-23T01:41:43;13.27;;;6.20;;
15126;SDS011;7664;52.008;4.748;2022-11-23T01:44:25;10.70;;;5.15;;
15126;SDS011;7664;52.008;4.748;2022-11-23T01:46:54;13.30;;;5.68;;
15126;SDS011;7664;52.008;4.748;2022-11-23T01:49:22;12.93;;;5.30;;
15126;SDS011;7664;52.008;4.748;2022-11-23T01:51:51;9.20;;;4.90;;
15126;SDS011;7664;52.008;4.748;2022-11-23T01:54:23;16.55;;;5.50;;
15126;SDS011;7664;52.008;4.748;2022-11-23T01:56:54;12.65;;;5.30;;
15126;SDS011;7664;52.008;4.748;2022-11-23T01:59:24;10.60;;;5.70;;
15126;SDS011;7664;52.008;4.748;2022-11-23T02:01:52;8.05;;;4.28;;
15126;SDS011;7664;52.008;4.748;2022-11-23T02:04:21;10.55;;;5.22;;
15126;SDS011;7664;52.008;4.748;2022-11-23T02:06:50;10.15;;;4.60;;
15126;SDS011;7664;52.008;4.748;2022-11-23T02:09:19;8.93;;;4.53;;
15126;SDS011;7664;52.008;4.748;2022-11-23T02:11:51;10.57;;;4.75;;
15126;SDS011;7664;52.008;4.748;2022-11-23T02:14:19;9.43;;;5.43;;
15126;SDS011;7664;52.008;4.748;2022-11-23T02:16:52;9.43;;;4.55;;
15126;SDS011;7664;52.008;4.748;2022-11-23T02:19:22;11.18;;;4.95;;
15126;SDS011;7664;52.008;4.748;2022-11-23T02:21:55;12.43;;;5.10;;
15126;SDS011;7664;52.008;4.748;2022-11-23T02:24:25;9.13;;;4.50;;
15126;SDS011;7664;52.008;4.748;2022-11-23T02:26:57;11.32;;;4.40;;
15126;SDS011;7664;52.008;4.748;2022-11-23T02:29:27;9.95;;;4.25;;
15126;SDS011;7664;52.008;4.748;2022-11-23T02:31:59;13.70;;;4.88;;
15126;SDS011;7664;52.008;4.748;2022-11-23T02:34:27;7.88;;;3.83;;
15126;SDS011;7664;52.008;4.748;2022-11-23T02:36:58;10.65;;;4.70;;
15126;SDS011;7664;52.008;4.748;2022-11-23T02:39:29;11.85;;;4.38;;
15126;SDS011;7664;52.008;4.748;2022-11-23T02:41:59;10.25;;;4.20;;
15126;SDS011;7664;52.008;4.748;2022-11-23T02:44:31;10.63;;;4.93;;
15126;SDS011;7664;52.008;4.748;2022-11-23T02:47:01;12.57;;;5.10;;
15126;SDS011;7664;52.008;4.748;2022-11-23T02:49:30;11.05;;;5.43;;
15126;SDS011;7664;52.008;4.748;2022-11-23T02:51:59;11.80;;;6.18;;
15126;SDS011;7664;52.008;4.748;2022-11-23T02:54:28;13.82;;;7.07;;
15126;SDS011;7664;52.008;4.748;2022-11-23T02:56:56;11.57;;;7.50;;
15126;SDS011;7664;52.008;4.748;2022-11-23T02:59:26;14.93;;;8.25;;
15126;SDS011;7664;52.008;4.748;2022-11-23T03:01:56;14.52;;;8.65;;
15126;SDS011;7664;52.008;4.748;2022-11-23T03:04:24;15.90;;;8.50;;
15126;SDS011;7664;52.008;4.748;2022-11-23T03:06:53;13.90;;;8.23;;
15126;SDS011;7664;52.008;4.748;2022-11-23T03:09:22;12.85;;;8.82;;
15126;SDS011;7664;52.008;4.748;2022-11-23T03:11:51;13.75;;;8.82;;
15126;SDS011;7664;52.008;4.748;2022-11-23T03:14:19;11.07;;;7.35;;
15126;SDS011;7664;52.008;4.748;2022-11-23T03:16:55;13.13;;;8.30;;
15126;SDS011;7664;52.008;4.748;2022-11-23T03:19:24;15.00;;;9.50;;
15126;SDS011;7664;52.008;4.748;2022-11-23T03:21:52;14.82;;;7.97;;
15126;SDS011;7664;52.008;4.748;2022-11-23T03:24:21;12.30;;;8.20;;
15126;SDS011;7664;52.008;4.748;2022-11-23T03:26:50;15.32;;;8.38;;
15126;SDS011;7664;52.008;4.748;2022-11-23T03:29:19;14.05;;;6.88;;
15126;SDS011;7664;52.008;4.748;2022-11-23T03:31:52;11.98;;;6.93;;
15126;SDS011;7664;52.008;4.748;2022-11-23T03:34:22;12.77;;;8.57;;
15126;SDS011;7664;52.008;4.748;2022-11-23T03:36:51;13.90;;;7.32;;
15126;SDS011;7664;52.008;4.748;2022-11-23T03:39:19;8.68;;;6.78;;
15126;SDS011;7664;52.008;4.748;2022-11-23T03:41:47;15.60;;;7.75;;
15126;SDS011;7664;52.008;4.748;2022-11-23T03:44:18;9.43;;;7.03;;
15126;SDS011;7664;52.008;4.748;2022-11-23T03:46:47;7.43;;;5.82;;
15126;SDS011;7664;52.008;4.748;2022-11-23T03:49:16;9.82;;;6.97;;
15126;SDS011;7664;52.008;4.748;2022-11-23T03:51:46;13.05;;;7.70;;
15126;SDS011;7664;52.008;4.748;2022-11-23T03:54:15;12.23;;;6.97;;
15126;SDS011;7664;52.008;4.748;2022-11-23T03:56:44;13.55;;;7.60;;
15126;SDS011;7664;52.008;4.748;2022-11-23T03:59:12;11.05;;;6.82;;
15126;SDS011;7664;52.008;4.748;2022-11-23T04:01:41;11.48;;;7.47;;
15126;SDS011;7664;52.008;4.748;2022-11-23T04:04:16;15.10;;;6.82;;
15126;SDS011;7664;52.008;4.748;2022-11-23T04:07:04;11.00;;;6.85;;
15126;SDS011;7664;52.008;4.748;2022-11-23T04:09:38;8.65;;;6.43;;
15126;SDS011;7664;52.008;4.748;2022-11-23T04:12:27;10.30;;;6.45;;
15126;SDS011;7664;52.008;4.748;2022-11-23T04:14:56;14.35;;;7.55;;
15126;SDS011;7664;52.008;4.748;2022-11-23T04:17:24;11.68;;;6.53;;
15126;SDS011;7664;52.008;4.748;2022-11-23T04:19:52;11.02;;;7.40;;
15126;SDS011;7664;52.008;4.748;2022-11-23T04:22:22;10.65;;;7.05;;
15126;SDS011;7664;52.008;4.748;2022-11-23T04:24:51;13.27;;;7.40;;
15126;SDS011;7664;52.008;4.748;2022-11-23T04:27:20;11.82;;;7.78;;
15126;SDS011;7664;52.008;4.748;2022-11-23T04:29:49;16.05;;;7.78;;
15126;SDS011;7664;52.008;4.748;2022-11-23T04:32:18;12.88;;;7.80;;
15126;SDS011;7664;52.008;4.748;2022-11-23T04:34:47;12.80;;;7.68;;
15126;SDS011;7664;52.008;4.748;2022-11-23T04:37:16;10.98;;;6.90;;
15126;SDS011;7664;52.008;4.748;2022-11-23T04:39:45;12.30;;;7.30;;
15126;SDS011;7664;52.008;4.748;2022-11-23T04:42:40;11.63;;;6.28;;
15126;SDS011;7664;52.008;4.748;2022-11-23T04:45:09;11.65;;;6.15;;
15126;SDS011;7664;52.008;4.748;2022-11-23T04:47:37;13.20;;;6.13;;
15126;SDS011;7664;52.008;4.748;2022-11-23T04:50:10;13.75;;;6.00;;
15126;SDS011;7664;52.008;4.748;2022-11-23T04:52:42;10.18;;;6.22;;
15126;SDS011;7664;52.008;4.748;2022-11-23T04:55:17;9.70;;;5.60;;
15126;SDS011;7664;52.008;4.748;2022-11-23T04:57:53;9.60;;;6.35;;
15126;SDS011;7664;52.008;4.748;2022-11-23T05:00:25;12.18;;;5.88;;
15126;SDS011;7664;52.008;4.748;2022-11-23T05:02:57;10.10;;;5.30;;
15126;SDS011;7664;52.008;4.748;2022-11-23T05:05:29;12.32;;;6.88;;
15126;SDS011;7664;52.008;4.748;2022-11-23T05:07:58;10.23;;;6.07;;
15126;SDS011;7664;52.008;4.748;2022-11-23T05:10:40;10.63;;;6.13;;
15126;SDS011;7664;52.008;4.748;2022-11-23T05:13:09;11.60;;;6.85;;
15126;SDS011;7664;52.008;4.748;2022-11-23T05:15:38;12.98;;;6.45;;
15126;SDS011;7664;52.008;4.748;2022-11-23T05:18:06;9.95;;;5.95;;
15126;SDS011;7664;52.008;4.748;2022-11-23T05:20:37;14.55;;;6.85;;
15126;SDS011;7664;52.008;4.748;2022-11-23T05:23:05;12.60;;;6.40;;
15126;SDS011;7664;52.008;4.748;2022-11-23T05:25:37;10.20;;;6.20;;
15126;SDS011;7664;52.008;4.748;2022-11-23T05:28:10;9.73;;;6.47;;
15126;SDS011;7664;52.008;4.748;2022-11-23T05:31:01;15.10;;;6.80;;
15126;SDS011;7664;52.008;4.748;2022-11-23T05:33:29;7.70;;;5.07;;
15126;SDS011;7664;52.008;4.748;2022-11-23T05:35:57;11.27;;;5.30;;
15126;SDS011;7664;52.008;4.748;2022-11-23T05:38:35;5.97;;;3.60;;
15126;SDS011;7664;52.008;4.748;2022-11-23T05:41:10;7.20;;;3.72;;
15126;SDS011;7664;52.008;4.748;2022-11-23T05:43:42;14.27;;;4.25;;
15126;SDS011;7664;52.008;4.748;2022-11-23T05:46:17;9.38;;;3.47;;
15126;SDS011;7664;52.008;4.748;2022-11-23T05:48:45;8.98;;;2.58;;
15126;SDS011;7664;52.008;4.748;2022-11-23T05:51:14;7.32;;;2.20;;
15126;SDS011;7664;52.008;4.748;2022-11-23T05:53:45;7.45;;;2.10;;
15126;SDS011;7664;52.008;4.748;2022-11-23T05:56:21;5.88;;;2.45;;
15126;SDS011;7664;52.008;4.748;2022-11-23T05:59:23;4.25;;;1.92;;
15126;SDS011;7664;52.008;4.748;2022-11-23T06:01:57;6.50;;;1.58;;
15126;SDS011;7664;52.008;4.748;2022-11-23T06:04:30;9.23;;;2.25;;
15126;SDS011;7664;52.008;4.748;2022-11-23T06:06:58;5.28;;;2.10;;
15126;SDS011;7664;52.008;4.748;2022-11-23T06:09:35;6.20;;;1.73;;
15126;SDS011;7664;52.008;4.748;2022-11-23T06:12:07;5.53;;;2.25;;
15126;SDS011;7664;52.008;4.748;2022-11-23T06:14:37;2.90;;;1.70;;
15126;SDS011;7664;52.008;4.748;2022-11-23T06:17:05;3.92;;;2.00;;
15126;SDS011;7664;52.008;4.748;2022-11-23T06:19:46;5.93;;;2.20;;
15126;SDS011;7664;52.008;4.748;2022-11-23T06:22:15;5.28;;;2.70;;
15126;SDS011;7664;52.008;4.748;2022-11-23T06:24:53;5.93;;;2.97;;
15126;SDS011;7664;52.008;4.748;2022-11-23T06:27:39;6.15;;;2.88;;
15126;SDS011;7664;52.008;4.748;2022-11-23T06:30:20;14.75;;;4.05;;
15126;SDS011;7664;52.008;4.748;2022-11-23T06:32:49;6.68;;;3.30;;
15126;SDS011;7664;52.008;4.748;2022-11-23T06:35:19;8.55;;;3.03;;
15126;SDS011;7664;52.008;4.748;2022-11-23T06:37:48;4.15;;;2.55;;
15126;SDS011;7664;52.008;4.748;2022-11-23T06:40:16;8.68;;;2.90;;
15126;SDS011;7664;52.008;4.748;2022-11-23T06:42:45;11.07;;;3.30;;
15126;SDS011;7664;52.008;4.748;2022-11-23T06:45:28;7.07;;;2.22;;
15126;SDS011;7664;52.008;4.748;2022-11-23T06:48:00;6.50;;;2.45;;
15126;SDS011;7664;52.008;4.748;2022-11-23T06:50:31;10.00;;;2.88;;
15126;SDS011;7664;52.008;4.748;2022-11-23T06:52:59;7.38;;;2.60;;
15126;SDS011;7664;52.008;4.748;2022-11-23T06:55:36;6.53;;;2.80;;
15126;SDS011;7664;52.008;4.748;2022-11-23T06:58:06;10.23;;;3.25;;
15126;SDS011;7664;52.008;4.748;2022-11-23T07:00:35;8.88;;;2.78;;
15126;SDS011;7664;52.008;4.748;2022-11-23T07:03:09;7.32;;;2.75;;
15126;SDS011;7664;52.008;4.748;2022-11-23T07:05:41;6.22;;;2.38;;
15126;SDS011;7664;52.008;4.748;2022-11-23T07:08:10;4.63;;;2.20;;
15126;SDS011;7664;52.008;4.748;2022-11-23T07:10:38;7.70;;;2.30;;
15126;SDS011;7664;52.008;4.748;2022-11-23T07:13:09;9.90;;;2.40;;
15126;SDS011;7664;52.008;4.748;2022-11-23T07:15:39;6.82;;;1.58;;
15126;SDS011;7664;52.008;4.748;2022-11-23T07:18:08;6.75;;;1.48;;
15126;SDS011;7664;52.008;4.748;2022-11-23T07:20:40;7.65;;;1.65;;
15126;SDS011;7664;52.008;4.748;2022-11-23T07:23:09;5.03;;;1.63;;
15126;SDS011;7664;52.008;4.748;2022-11-23T07:25:39;7.78;;;1.70;;
15126;SDS011;7664;52.008;4.748;2022-11-23T07:28:07;7.97;;;1.95;;
15126;SDS011;7664;52.008;4.748;2022-11-23T07:30:35;7.38;;;1.77;;
15126;SDS011;7664;52.008;4.748;2022-11-23T07:33:06;6.53;;;1.35;;
15126;SDS011;7664;52.008;4.748;2022-11-23T07:35:36;6.15;;;1.55;;
15126;SDS011;7664;52.008;4.748;2022-11-23T07:38:04;4.72;;;1.77;;
15126;SDS011;7664;52.008;4.748;2022-11-23T07:40:35;8.82;;;2.45;;
15126;SDS011;7664;52.008;4.748;2022-11-23T07:43:04;6.47;;;1.70;;
15126;SDS011;7664;52.008;4.748;2022-11-23T07:45:33;6.68;;;1.73;;
15126;SDS011;7664;52.008;4.748;2022-11-23T07:48:07;7.40;;;2.05;;
15126;SDS011;7664;52.008;4.748;2022-11-23T07:50:37;9.57;;;1.67;;
15126;SDS011;7664;52.008;4.748;2022-11-23T07:53:05;6.53;;;1.90;;
15126;SDS011;7664;52.008;4.748;2022-11-23T07:55:34;6.00;;;1.52;;
15126;SDS011;7664;52.008;4.748;2022-11-23T07:58:02;5.85;;;1.50;;
15126;SDS011;7664;52.008;4.748;2022-11-23T08:00:31;6.85;;;1.83;;
15126;SDS011;7664;52.008;4.748;2022-11-23T08:03:00;8.13;;;1.70;;
15126;SDS011;7664;52.008;4.748;2022-11-23T08:05:49;5.72;;;1.88;;
15126;SDS011;7664;52.008;4.748;2022-11-23T08:08:18;11.68;;;1.67;;
15126;SDS011;7664;52.008;4.748;2022-11-23T08:10:47;8.40;;;1.75;;
15126;SDS011;7664;52.008;4.748;2022-11-23T08:13:19;9.20;;;1.52;;
15126;SDS011;7664;52.008;4.748;2022-11-23T08:15:50;4.38;;;1.67;;
15126;SDS011;7664;52.008;4.748;2022-11-23T08:18:21;9.80;;;2.42;;
15126;SDS011;7664;52.008;4.748;2022-11-23T08:20:51;8.55;;;1.30;;
15126;SDS011;7664;52.008;4.748;2022-11-23T08:23:20;5.63;;;1.33;;
15126;SDS011;7664;52.008;4.748;2022-11-23T08:25:48;9.57;;;1.77;;
15126;SDS011;7664;52.008;4.748;2022-11-23T08:28:17;7.13;;;2.00;;
15126;SDS011;7664;52.008;4.748;2022-11-23T08:30:45;5.03;;;1.58;;
15126;SDS011;7664;52.008;4.748;2022-11-23T08:33:14;8.85;;;1.85;;
15126;SDS011;7664;52.008;4.748;2022-11-23T08:35:43;7.13;;;2.33;;
15126;SDS011;7664;52.008;4.748;2022-11-23T08:38:13;5.03;;;1.55;;
15126;SDS011;7664;52.008;4.748;2022-11-23T08:40:41;9.70;;;2.38;;
15126;SDS011;7664;52.008;4.748;2022-11-23T08:43:10;8.85;;;1.90;;
15126;SDS011;7664;52.008;4.748;2022-11-23T08:45:38;10.02;;;1.88;;
15126;SDS011;7664;52.008;4.748;2022-11-23T08:48:07;8.35;;;1.88;;
15126;SDS011;7664;52.008;4.748;2022-11-23T08:50:35;7.78;;;1.70;;
15126;SDS011;7664;52.008;4.748;2022-11-23T08:53:04;8.75;;;1.67;;
15126;SDS011;7664;52.008;4.748;2022-11-23T08:55:33;6.82;;;1.92;;
15126;SDS011;7664;52.008;4.748;2022-11-23T08:58:02;9.52;;;1.92;;
15126;SDS011;7664;52.008;4.748;2022-11-23T09:00:37;10.95;;;2.38;;
15126;SDS011;7664;52.008;4.748;2022-11-23T09:03:05;4.88;;;2.10;;
15126;SDS011;7664;52.008;4.748;2022-11-23T09:05:35;8.13;;;1.83;;
15126;SDS011;7664;52.008;4.748;2022-11-23T09:08:04;7.78;;;1.88;;
15126;SDS011;7664;52.008;4.748;2022-11-23T09:10:36;8.00;;;1.58;;
15126;SDS011;7664;52.008;4.748;2022-11-23T09:13:04;12.00;;;1.77;;
15126;SDS011;7664;52.008;4.748;2022-11-23T09:15:33;13.07;;;1.60;;
15126;SDS011;7664;52.008;4.748;2022-11-23T09:18:01;9.00;;;1.30;;
15126;SDS011;7664;52.008;4.748;2022-11-23T09:20:29;8.32;;;2.60;;
15126;SDS011;7664;52.008;4.748;2022-11-23T09:22:58;6.75;;;1.52;;
15126;SDS011;7664;52.008;4.748;2022-11-23T09:25:26;9.25;;;2.00;;
15126;SDS011;7664;52.008;4.748;2022-11-23T09:27:56;4.35;;;1.63;;
15126;SDS011;7664;52.008;4.748;2022-11-23T09:30:26;7.47;;;1.63;;
15126;SDS011;7664;52.008;4.748;2022-11-23T09:32:54;7.82;;;1.38;;
15126;SDS011;7664;52.008;4.748;2022-11-23T09:35:23;7.93;;;2.28;;
15126;SDS011;7664;52.008;4.748;2022-11-23T09:37:55;7.70;;;2.00;;
15126;SDS011;7664;52.008;4.748;2022-11-23T09:40:24;10.82;;;1.83;;
15126;SDS011;7664;52.008;4.748;2022-11-23T09:42:55;5.20;;;1.50;;
15126;SDS011;7664;52.008;4.748;2022-11-23T09:45:30;7.53;;;2.28;;
15126;SDS011;7664;52.008;4.748;2022-11-23T09:48:14;9.38;;;1.80;;
15126;SDS011;7664;52.008;4.748;2022-11-23T09:50:45;3.95;;;1.10;;
15126;SDS011;7664;52.008;4.748;2022-11-23T09:53:15;14.57;;;1.92;;
15126;SDS011;7664;52.008;4.748;2022-11-23T09:55:44;8.20;;;1.38;;
15126;SDS011;7664;52.008;4.748;2022-11-23T09:58:14;9.85;;;2.70;;
15126;SDS011;7664;52.008;4.748;2022-11-23T10:00:46;2.90;;;1.23;;
15126;SDS011;7664;52.008;4.748;2022-11-23T10:03:16;11.35;;;2.03;;
15126;SDS011;7664;52.008;4.748;2022-11-23T10:05:49;6.80;;;1.67;;
15126;SDS011;7664;52.008;4.748;2022-11-23T10:08:24;5.63;;;1.48;;
15126;SDS011;7664;52.008;4.748;2022-11-23T10:10:56;11.07;;;2.03;;
15126;SDS011;7664;52.008;4.748;2022-11-23T10:13:29;16.98;;;2.22;;
15126;SDS011;7664;52.008;4.748;2022-11-23T10:16:09;10.52;;;2.05;;
15126;SDS011;7664;52.008;4.748;2022-11-23T10:18:42;13.57;;;1.92;;
15126;SDS011;7664;52.008;4.748;2022-11-23T10:21:15;3.60;;;1.40;;
15126;SDS011;7664;52.008;4.748;2022-11-23T10:23:50;6.85;;;2.03;;
15126;SDS011;7664;52.008;4.748;2022-11-23T10:26:20;4.60;;;1.73;;
15126;SDS011;7664;52.008;4.748;2022-11-23T10:28:50;10.80;;;2.47;;
15126;SDS011;7664;52.008;4.748;2022-11-23T10:31:22;7.43;;;1.90;;
15126;SDS011;7664;52.008;4.748;2022-11-23T10:33:53;4.88;;;1.63;;
15126;SDS011;7664;52.008;4.748;2022-11-23T10:36:22;7.57;;;2.05;;
15126;SDS011;7664;52.008;4.748;2022-11-23T10:38:52;7.68;;;2.28;;
15126;SDS011;7664;52.008;4.748;2022-11-23T10:41:21;7.05;;;2.15;;
15126;SDS011;7664;52.008;4.748;2022-11-23T10:43:50;9.23;;;2.60;;
15126;SDS011;7664;52.008;4.748;2022-11-23T10:46:28;6.25;;;2.15;;
15126;SDS011;7664;52.008;4.748;2022-11-23T10:49:09;7.97;;;2.38;;
15126;SDS011;7664;52.008;4.748;2022-11-23T10:51:37;5.55;;;2.08;;
15126;SDS011;7664;52.008;4.748;2022-11-23T10:54:16;7.25;;;2.58;;
15126;SDS011;7664;52.008;4.748;2022-11-23T10:56:45;19.75;;;2.35;;
15126;SDS011;7664;52.008;4.748;2022-11-23T10:59:24;3.88;;;1.70;;
15126;SDS011;7664;52.008;4.748;2022-11-23T11:01:59;5.25;;;1.70;;
15126;SDS011;7664;52.008;4.748;2022-11-23T11:04:28;6.40;;;2.50;;
15126;SDS011;7664;52.008;4.748;2022-11-23T11:07:08;11.88;;;2.53;;
15126;SDS011;7664;52.008;4.748;2022-11-23T11:09:37;4.78;;;2.00;;
15126;SDS011;7664;52.008;4.748;2022-11-23T11:12:13;7.70;;;2.22;;
15126;SDS011;7664;52.008;4.748;2022-11-23T11:14:53;10.13;;;2.17;;
15126;SDS011;7664;52.008;4.748;2022-11-23T11:17:32;6.78;;;1.90;;
15126;SDS011;7664;52.008;4.748;2022-11-23T11:20:22;6.25;;;1.70;;
15126;SDS011;7664;52.008;4.748;2022-11-23T11:22:50;5.13;;;1.98;;
15126;SDS011;7664;52.008;4.748;2022-11-23T11:25:26;6.43;;;1.65;;
15126;SDS011;7664;52.008;4.748;2022-11-23T11:27:56;5.63;;;2.00;;
15126;SDS011;7664;52.008;4.748;2022-11-23T11:30:26;6.88;;;1.65;;
15126;SDS011;7664;52.008;4.748;2022-11-23T11:32:57;9.38;;;3.17;;
15126;SDS011;7664;52.008;4.748;2022-11-23T11:35:30;10.43;;;1.65;;
15126;SDS011;7664;52.008;4.748;2022-11-23T11:37:59;5.50;;;1.65;;
15126;SDS011;7664;52.008;4.748;2022-11-23T11:40:31;2.83;;;1.42;;
15126;SDS011;7664;52.008;4.748;2022-11-23T11:43:01;6.90;;;1.67;;
15126;SDS011;7664;52.008;4.748;2022-11-23T11:45:32;7.00;;;1.98;;
15126;SDS011;7664;52.008;4.748;2022-11-23T11:48:07;4.07;;;1.63;;
15126;SDS011;7664;52.008;4.748;2022-11-23T11:50:38;6.93;;;1.85;;
15126;SDS011;7664;52.008;4.748;2022-11-23T11:53:09;8.00;;;1.73;;
15126;SDS011;7664;52.008;4.748;2022-11-23T11:55:44;5.45;;;1.85;;
15126;SDS011;7664;52.008;4.748;2022-11-23T11:58:14;6.57;;;1.85;;
15126;SDS011;7664;52.008;4.748;2022-11-23T12:00:43;6.78;;;2.33;;
15126;SDS011;7664;52.008;4.748;2022-11-23T12:03:17;8.25;;;2.35;;
15126;SDS011;7664;52.008;4.748;2022-11-23T12:05:47;5.05;;;1.35;;
15126;SDS011;7664;52.008;4.748;2022-11-23T12:08:17;3.20;;;1.75;;
15126;SDS011;7664;52.008;4.748;2022-11-23T12:10:47;8.75;;;1.92;;
15126;SDS011;7664;52.008;4.748;2022-11-23T12:13:17;4.28;;;1.40;;
15126;SDS011;7664;52.008;4.748;2022-11-23T12:15:47;4.30;;;1.40;;
15126;SDS011;7664;52.008;4.748;2022-11-23T12:18:29;5.97;;;2.08;;
15126;SDS011;7664;52.008;4.748;2022-11-23T12:21:01;4.78;;;1.17;;
15126;SDS011;7664;52.008;4.748;2022-11-23T12:23:34;8.70;;;1.50;;
15126;SDS011;7664;52.008;4.748;2022-11-23T12:26:11;8.63;;;1.80;;
15126;SDS011;7664;52.008;4.748;2022-11-23T12:28:47;2.58;;;1.40;;
15126;SDS011;7664;52.008;4.748;2022-11-23T12:31:22;8.82;;;1.40;;
15126;SDS011;7664;52.008;4.748;2022-11-23T12:34:02;2.70;;;0.98;;
15126;SDS011;7664;52.008;4.748;2022-11-23T12:36:41;3.65;;;1.00;;
15126;SDS011;7664;52.008;4.748;2022-11-23T12:39:16;4.10;;;0.90;;
15126;SDS011;7664;52.008;4.748;2022-11-23T12:41:49;3.25;;;1.25;;
15126;SDS011;7664;52.008;4.748;2022-11-23T12:47:09;4.45;;;1.42;;
15126;SDS011;7664;52.008;4.748;2022-11-23T12:49:42;3.60;;;1.15;;
15126;SDS011;7664;52.008;4.748;2022-11-23T12:52:17;4.18;;;1.00;;
15126;SDS011;7664;52.008;4.748;2022-11-23T12:54:52;2.85;;;0.90;;
15126;SDS011;7664;52.008;4.748;2022-11-23T12:57:23;6.95;;;1.05;;
15126;SDS011;7664;52.008;4.748;2022-11-23T12:59:57;4.75;;;1.08;;
15126;SDS011;7664;52.008;4.748;2022-11-23T13:02:37;3.88;;;0.77;;
15126;SDS011;7664;52.008;4.748;2022-11-23T13:05:24;5.82;;;1.00;;
15126;SDS011;7664;52.008;4.748;2022-11-23T13:08:04;7.13;;;1.25;;
15126;SDS011;7664;52.008;4.748;2022-11-23T13:10:39;5.18;;;1.20;;
15126;SDS011;7664;52.008;4.748;2022-11-23T13:18:52;4.22;;;1.00;;
15126;SDS011;7664;52.008;4.748;2022-11-23T13:21:33;4.38;;;1.00;;
15126;SDS011;7664;52.008;4.748;2022-11-23T13:24:02;4.05;;;0.93;;
15126;SDS011;7664;52.008;4.748;2022-11-23T13:26:31;4.00;;;0.80;;
15126;SDS011;7664;52.008;4.748;2022-11-23T13:28:59;4.68;;;1.00;;
15126;SDS011;7664;52.008;4.748;2022-11-23T13:31:48;4.63;;;1.52;;
15126;SDS011;7664;52.008;4.748;2022-11-23T13:37:01;6.18;;;1.52;;
15126;SDS011;7664;52.008;4.748;2022-11-23T13:42:23;7.13;;;1.52;;
15126;SDS011;7664;52.008;4.748;2022-11-23T13:47:39;4.15;;;1.30;;
15126;SDS011;7664;52.008;4.748;2022-11-23T13:50:16;4.45;;;1.23;;
15126;SDS011;7664;52.008;4.748;2022-11-23T13:52:48;3.67;;;1.38;;
15126;SDS011;7664;52.008;4.748;2022-11-23T13:55:18;2.63;;;0.85;;
15126;SDS011;7664;52.008;4.748;2022-11-23T14:00:44;3.88;;;1.10;;
15126;SDS011;7664;52.008;4.748;2022-11-23T14:05:55;3.92;;;0.60;;
15126;SDS011;7664;52.008;4.748;2022-11-23T14:08:27;0.85;;;0.65;;
15126;SDS011;7664;52.008;4.748;2022-11-23T14:10:56;6.55;;;1.10;;
15126;SDS011;7664;52.008;4.748;2022-11-23T14:13:24;3.72;;;1.48;;
15126;SDS011;7664;52.008;4.748;2022-11-23T14:15:56;5.68;;;1.23;;
15126;SDS011;7664;52.008;4.748;2022-11-23T14:18:33;5.18;;;1.13;;
15126;SDS011;7664;52.008;4.748;2022-11-23T14:21:06;3.10;;;1.20;;
15126;SDS011;7664;52.008;4.748;2022-11-23T14:26:33;4.53;;;0.80;;
15126;SDS011;7664;52.008;4.748;2022-11-23T14:29:16;2.60;;;1.23;;
15126;SDS011;7664;52.008;4.748;2022-11-23T14:31:48;3.53;;;1.08;;
15126;SDS011;7664;52.008;4.748;2022-11-23T14:34:20;5.82;;;1.35;;
15126;SDS011;7664;52.008;4.748;2022-11-23T14:36:52;3.35;;;0.75;;
15126;SDS011;7664;52.008;4.748;2022-11-23T14:42:11;4.45;;;1.55;;
15126;SDS011;7664;52.008;4.748;2022-11-23T14:44:40;1.83;;;0.90;;
15126;SDS011;7664;52.008;4.748;2022-11-23T14:47:12;2.33;;;1.00;;
15126;SDS011;7664;52.008;4.748;2022-11-23T14:49:50;4.60;;;0.85;;
15126;SDS011;7664;52.008;4.748;2022-11-23T14:52:18;4.13;;;1.25;;
15126;SDS011;7664;52.008;4.748;2022-11-23T14:54:49;4.97;;;1.20;;
15126;SDS011;7664;52.008;4.748;2022-11-23T14:57:20;5.85;;;1.23;;
15126;SDS011;7664;52.008;4.748;2022-11-23T14:59:49;7.03;;;1.48;;
15126;SDS011;7664;52.008;4.748;2022-11-23T15:02:19;5.40;;;1.08;;
15126;SDS011;7664;52.008;4.748;2022-11-23T15:04:52;3.63;;;0.80;;
15126;SDS011;7664;52.008;4.748;2022-11-23T15:07:23;4.35;;;1.60;;
15126;SDS011;7664;52.008;4.748;2022-11-23T15:09:55;2.88;;;0.90;;
15126;SDS011;7664;52.008;4.748;2022-11-23T15:12:39;1.85;;;1.25;;
15126;SDS011;7664;52.008;4.748;2022-11-23T15:15:14;5.18;;;1.00;;
15126;SDS011;7664;52.008;4.748;2022-11-23T15:17:50;8.90;;;2.92;;
15126;SDS011;7664;52.008;4.748;2022-11-23T15:20:19;6.72;;;1.42;;
15126;SDS011;7664;52.008;4.748;2022-11-23T15:22:48;2.15;;;1.00;;
15126;SDS011;7664;52.008;4.748;2022-11-23T15:25:16;2.75;;;0.98;;
15126;SDS011;7664;52.008;4.748;2022-11-23T15:27:47;3.70;;;0.75;;
15126;SDS011;7664;52.008;4.748;2022-11-23T15:30:17;1.75;;;0.80;;
15126;SDS011;7664;52.008;4.748;2022-11-23T15:32:55;3.03;;;1.25;;
15126;SDS011;7664;52.008;4.748;2022-11-23T15:35:26;2.13;;;1.08;;
15126;SDS011;7664;52.008;4.748;2022-11-23T15:37:55;2.35;;;1.08;;
15126;SDS011;7664;52.008;4.748;2022-11-23T15:40:25;1.25;;;0.52;;
15126;SDS011;7664;52.008;4.748;2022-11-23T15:42:55;1.60;;;0.98;;
15126;SDS011;7664;52.008;4.748;2022-11-23T15:45:34;5.20;;;1.40;;
15126;SDS011;7664;52.008;4.748;2022-11-23T15:48:03;2.30;;;1.25;;
15126;SDS011;7664;52.008;4.748;2022-11-23T15:50:32;3.47;;;1.25;;
15126;SDS011;7664;52.008;4.748;2022-11-23T15:53:00;3.13;;;1.20;;
15126;SDS011;7664;52.008;4.748;2022-11-23T15:55:29;2.45;;;1.05;;
15126;SDS011;7664;52.008;4.748;2022-11-23T15:57:59;2.20;;;1.00;;
15126;SDS011;7664;52.008;4.748;2022-11-23T16:00:28;1.98;;;1.10;;
15126;SDS011;7664;52.008;4.748;2022-11-23T16:05:41;4.93;;;1.50;;
15126;SDS011;7664;52.008;4.748;2022-11-23T16:08:21;1.40;;;1.27;;